Aviation Digital Data Service (ADDS)

Output produced by TAFs form (0629 UTC 27 March 2017)
found at http://www.aviationweather.gov/adds/tafs/
 
METAR text: RJAK 270545Z 35010KT 9999 -SHRA FEW015 SCT020 BKN045 06/03 Q1008 RMK 1CU015 3CU020 7SC045 A2978
Conditions at: RJAK (KASUMIGAURA (JAS, JP) observed 0545 UTC 27 March 2017
Temperature: 6.0°C (43°F)
Dewpoint: 3.0°C (37°F) [RH = 81%]
Pressure (altimeter): 29.76 inches Hg (1008.0 mb)
Winds: from the N (350 degrees) at 12 MPH (10 knots; 5.2 m/s)
Visibility: 6 or more miles (10+ km)
Ceiling: 4500 feet AGL
Clouds: few clouds at 1500 feet AGL
scattered clouds at 2000 feet AGL
broken clouds at 4500 feet AGL
Weather: -SHRA  (light rain showers)